createdAt,value
2023-02-19T00:00:24.128Z,56.29
2023-02-19T00:02:25.731Z,56.18
2023-02-19T00:04:27.437Z,56.14
2023-02-19T00:06:30.691Z,56.29
2023-02-19T00:08:33.393Z,56.19
2023-02-19T00:10:35.076Z,56.24
2023-02-19T00:12:36.638Z,56.25
2023-02-19T00:14:38.116Z,56.29
2023-02-19T00:16:40.114Z,56.39
2023-02-19T00:18:42.703Z,56.38
2023-02-19T00:20:44.498Z,56.24
2023-02-19T00:22:45.930Z,56.31
2023-02-19T00:24:49.333Z,56.42
2023-02-19T00:26:50.950Z,56.32
2023-02-19T00:28:55.463Z,56.38
2023-02-19T00:30:57.348Z,56.20
2023-02-19T00:33:01.454Z,56.38
2023-02-19T00:35:04.332Z,56.32
2023-02-19T00:37:11.708Z,56.19
2023-02-19T00:39:18.164Z,56.34
2023-02-19T00:41:21.985Z,56.37
2023-02-19T00:43:26.910Z,56.40
2023-02-19T00:45:28.576Z,56.45
2023-02-19T00:47:35.130Z,56.26
2023-02-19T00:49:36.699Z,56.40
2023-02-19T00:51:51.639Z,56.36
2023-02-19T00:53:53.597Z,56.23
2023-02-19T00:55:55.317Z,56.29
2023-02-19T00:57:56.840Z,56.49
2023-02-19T00:59:58.564Z,56.49
2023-02-19T01:02:00.232Z,56.47
2023-02-19T01:04:01.998Z,56.35
2023-02-19T01:06:05.630Z,56.57
2023-02-19T01:08:07.403Z,56.51
2023-02-19T01:10:09.412Z,56.54
2023-02-19T01:12:10.981Z,56.44
2023-02-19T01:14:12.497Z,56.44
2023-02-19T01:16:18.841Z,56.58
2023-02-19T01:18:20.749Z,56.38
2023-02-19T01:20:22.444Z,56.44
2023-02-19T01:22:24.163Z,56.51
2023-02-19T01:24:27.405Z,56.53
2023-02-19T01:26:36.582Z,56.69
2023-02-19T01:28:38.526Z,56.62
2023-02-19T01:30:40.413Z,56.63
2023-02-19T01:32:41.959Z,56.22
2023-02-19T01:34:43.539Z,56.56
2023-02-19T01:36:45.091Z,56.65
2023-02-19T01:38:46.917Z,56.70
2023-02-19T01:41:16.458Z,56.64
2023-02-19T01:43:18.129Z,56.72
2023-02-19T01:45:27.757Z,56.79
2023-02-19T01:47:29.469Z,56.73
2023-02-19T01:49:37.954Z,56.74
2023-02-19T01:52:01.593Z,56.78
2023-02-19T01:54:07.655Z,56.87
2023-02-19T01:56:13.012Z,56.83
2023-02-19T01:58:16.429Z,56.81
2023-02-19T02:00:18.401Z,56.84
2023-02-19T02:02:20.146Z,56.98
2023-02-19T02:04:21.821Z,57.10
2023-02-19T02:06:31.726Z,56.91
2023-02-19T02:08:52.832Z,56.89
2023-02-19T02:10:57.439Z,56.79
2023-02-19T02:12:59.200Z,56.82
2023-02-19T02:15:01.377Z,56.98
2023-02-19T02:17:30.500Z,57.07
2023-02-19T02:20:12.969Z,57.24
2023-02-19T02:22:36.920Z,57.14
2023-02-19T02:24:47.142Z,57.12
2023-02-19T02:27:04.642Z,57.38
2023-02-19T02:29:29.528Z,57.56
2023-02-19T02:31:37.965Z,57.24
2023-02-19T02:33:58.668Z,57.33
2023-02-19T02:36:07.594Z,57.56
2023-02-19T02:38:12.891Z,57.41
2023-02-19T02:40:15.074Z,57.32
2023-02-19T02:42:32.105Z,57.26
2023-02-19T02:44:42.238Z,57.41
2023-02-19T02:46:46.437Z,57.27
2023-02-19T02:48:57.377Z,57.51
2023-02-19T02:51:14.400Z,57.85
2023-02-19T02:54:02.881Z,57.67
2023-02-19T02:56:05.222Z,57.54
2023-02-19T02:58:10.209Z,57.60
2023-02-19T03:00:16.527Z,57.58
2023-02-19T03:02:23.416Z,57.52
2023-02-19T03:05:28.189Z,57.73
2023-02-19T03:08:18.590Z,57.83
2023-02-19T03:10:34.541Z,57.81
2023-02-19T03:13:00.478Z,57.66
2023-02-19T03:15:28.809Z,57.92
2023-02-19T03:17:56.786Z,57.82
2023-02-19T03:20:03.265Z,57.72
2023-02-19T03:22:17.159Z,57.97
2023-02-19T03:24:43.177Z,57.79
2023-02-19T03:26:46.510Z,57.82
2023-02-19T03:29:10.109Z,57.97
2023-02-19T03:31:18.020Z,58.02
2023-02-19T03:33:25.311Z,57.83
2023-02-19T03:35:35.144Z,57.96
2023-02-19T03:38:03.429Z,57.85
2023-02-19T03:40:06.783Z,57.83
2023-02-19T03:42:24.353Z,57.88
2023-02-19T03:44:51.678Z,57.97
2023-02-19T03:46:56.087Z,57.96
2023-02-19T03:49:30.067Z,57.89
2023-02-19T03:51:43.162Z,57.91
2023-02-19T03:53:57.541Z,57.86
2023-02-19T03:56:24.756Z,58.03
2023-02-19T03:58:53.121Z,58.04
2023-02-19T04:01:03.353Z,58.11
2023-02-19T04:03:15.759Z,57.91
2023-02-19T04:05:21.713Z,58.06
2023-02-19T04:07:25.196Z,58.00
2023-02-19T04:09:33.300Z,58.02
2023-02-19T04:11:39.976Z,57.80
2023-02-19T04:13:50.214Z,57.97
2023-02-19T04:15:55.876Z,58.01
2023-02-19T04:18:02.338Z,58.04
2023-02-19T04:20:08.809Z,57.91
2023-02-19T04:22:14.553Z,57.99
2023-02-19T04:24:27.382Z,57.84
2023-02-19T04:26:29.316Z,57.99
2023-02-19T04:28:31.233Z,57.96
2023-02-19T04:30:35.840Z,57.89
2023-02-19T04:32:40.314Z,58.25
2023-02-19T04:34:41.826Z,57.92
2023-02-19T04:36:43.508Z,58.01
2023-02-19T04:38:45.095Z,57.94
2023-02-19T04:40:47.176Z,57.81
2023-02-19T04:42:48.748Z,57.83
2023-02-19T04:44:50.232Z,57.97
2023-02-19T04:46:51.825Z,58.07
2023-02-19T04:48:56.328Z,58.00
2023-02-19T04:50:58.073Z,57.92
2023-02-19T04:52:59.647Z,58.02
2023-02-19T04:55:01.610Z,58.00
2023-02-19T04:57:03.360Z,58.09
2023-02-19T04:59:07.652Z,58.09
2023-02-19T05:01:10.352Z,57.99
2023-02-19T05:03:12.201Z,58.07
2023-02-19T05:05:13.846Z,58.13
2023-02-19T05:07:15.496Z,58.08
2023-02-19T05:09:17.027Z,58.04
2023-02-19T05:11:18.883Z,57.99
2023-02-19T05:13:20.448Z,57.96
2023-02-19T05:15:21.918Z,57.97
2023-02-19T05:17:23.484Z,58.07
2023-02-19T05:19:25.625Z,57.84
2023-02-19T05:21:27.469Z,57.95
2023-02-19T05:23:29.080Z,58.19
2023-02-19T05:25:30.630Z,57.97
2023-02-19T05:27:32.302Z,58.09
2023-02-19T05:29:33.897Z,58.14
2023-02-19T05:31:35.790Z,58.08
2023-02-19T05:33:38.026Z,57.97
2023-02-19T05:35:44.883Z,58.07
2023-02-19T05:37:46.545Z,57.97
2023-02-19T05:39:49.181Z,58.19
2023-02-19T05:41:50.665Z,58.02
2023-02-19T05:43:53.206Z,58.07
2023-02-19T05:45:58.541Z,58.01
2023-02-19T05:48:00.448Z,58.06
2023-02-19T05:50:02.234Z,58.24
2023-02-19T05:52:06.717Z,58.23
2023-02-19T05:54:09.617Z,58.04
2023-02-19T05:56:26.447Z,58.22
2023-02-19T05:58:28.149Z,58.10
2023-02-19T06:00:29.870Z,58.21
2023-02-19T06:02:34.253Z,58.10
2023-02-19T06:04:36.027Z,58.22
2023-02-19T06:06:38.112Z,58.11
2023-02-19T06:08:39.667Z,58.14
2023-02-19T06:10:41.451Z,58.22
2023-02-19T06:12:43.321Z,58.40
2023-02-19T06:14:45.188Z,58.27
2023-02-19T06:16:46.884Z,58.22
2023-02-19T06:18:48.656Z,58.32
2023-02-19T06:20:53.135Z,58.11
2023-02-19T06:22:54.835Z,58.32
2023-02-19T06:24:56.376Z,58.26
2023-02-19T06:26:59.858Z,58.31
2023-02-19T06:29:01.862Z,58.15
2023-02-19T06:31:04.587Z,58.04
2023-02-19T06:33:06.243Z,58.14
2023-02-19T06:35:07.935Z,58.23
2023-02-19T06:37:12.117Z,58.11
2023-02-19T06:39:13.871Z,57.98
2023-02-19T06:41:15.630Z,58.18
2023-02-19T06:43:18.210Z,58.21
2023-02-19T06:45:19.714Z,58.15
2023-02-19T06:47:23.175Z,58.13
2023-02-19T06:49:26.972Z,58.10
2023-02-19T06:51:29.766Z,58.18
2023-02-19T06:53:31.554Z,58.27
2023-02-19T06:55:33.036Z,58.24
2023-02-19T06:57:34.691Z,58.10
2023-02-19T06:59:36.315Z,58.28
2023-02-19T07:01:40.102Z,58.17
2023-02-19T07:03:41.752Z,58.16
2023-02-19T07:05:43.835Z,58.04
2023-02-19T07:07:46.151Z,58.30
2023-02-19T07:09:47.682Z,57.87
2023-02-19T07:11:49.447Z,58.34
2023-02-19T07:14:01.730Z,58.27
2023-02-19T07:16:07.993Z,58.28
2023-02-19T07:18:10.618Z,58.54
2023-02-19T07:20:13.197Z,58.40
2023-02-19T07:22:14.861Z,58.38
2023-02-19T07:24:16.491Z,58.49
2023-02-19T07:26:19.275Z,58.51
2023-02-19T07:28:20.979Z,58.66
2023-02-19T07:30:22.518Z,58.45
2023-02-19T07:32:24.168Z,58.40
2023-02-19T07:34:26.006Z,58.29
2023-02-19T07:36:27.738Z,58.49
2023-02-19T07:38:29.435Z,58.65
2023-02-19T07:40:31.036Z,58.35
2023-02-19T07:42:35.174Z,58.56
2023-02-19T07:44:36.933Z,58.65
2023-02-19T07:46:38.949Z,58.51
2023-02-19T07:48:42.617Z,58.61
2023-02-19T07:50:57.363Z,58.61
2023-02-19T07:52:58.996Z,58.58
2023-02-19T07:55:00.680Z,58.51
2023-02-19T07:57:02.403Z,58.70
2023-02-19T07:59:04.230Z,58.63
2023-02-19T08:01:10.623Z,58.62
2023-02-19T08:03:12.636Z,58.49
2023-02-19T08:05:18.128Z,58.52
2023-02-19T08:07:19.692Z,58.53
2023-02-19T08:09:24.282Z,58.41
2023-02-19T08:11:44.560Z,58.38
2023-02-19T08:13:51.592Z,58.55
2023-02-19T08:15:56.286Z,58.66
2023-02-19T08:17:59.384Z,58.51
2023-02-19T08:20:00.921Z,58.55
2023-02-19T08:22:02.883Z,58.90
2023-02-19T08:24:05.003Z,58.65
2023-02-19T08:26:07.312Z,58.69
2023-02-19T08:28:10.937Z,58.72
2023-02-19T08:30:12.940Z,58.61
2023-02-19T08:32:14.750Z,58.65
2023-02-19T08:34:16.700Z,58.57
2023-02-19T08:36:18.390Z,58.73
2023-02-19T08:38:20.076Z,58.75
2023-02-19T08:40:25.162Z,58.59
2023-02-19T08:42:28.818Z,58.78
2023-02-19T08:44:33.549Z,58.82
2023-02-19T08:46:35.284Z,58.93
2023-02-19T08:48:38.050Z,58.86
2023-02-19T08:50:40.202Z,59.00
2023-02-19T08:52:41.848Z,59.11
2023-02-19T08:54:45.845Z,59.03
2023-02-19T08:56:48.803Z,59.20
2023-02-19T08:58:50.275Z,59.01
2023-02-19T09:00:52.764Z,59.23
2023-02-19T09:02:54.321Z,59.09
2023-02-19T09:04:56.292Z,58.91
2023-02-19T09:06:58.196Z,58.94
2023-02-19T09:09:02.977Z,58.70
2023-02-19T09:11:07.285Z,58.39
2023-02-19T09:13:09.060Z,58.55
2023-02-19T09:15:10.875Z,58.44
2023-02-19T09:17:12.880Z,58.29
2023-02-19T09:19:14.499Z,58.39
2023-02-19T09:21:16.390Z,58.38
2023-02-19T09:23:18.081Z,58.15
2023-02-19T09:25:19.785Z,58.06
2023-02-19T09:27:21.423Z,58.07
2023-02-19T09:29:25.884Z,57.96
2023-02-19T09:31:27.726Z,57.98
2023-02-19T09:33:29.480Z,57.97
2023-02-19T09:35:31.166Z,58.00
2023-02-19T09:37:34.166Z,58.26
2023-02-19T09:39:36.313Z,58.03
2023-02-19T09:42:01.259Z,58.08
2023-02-19T09:44:06.038Z,58.01
2023-02-19T09:46:37.929Z,57.97
2023-02-19T09:48:41.584Z,57.88
2023-02-19T09:50:47.992Z,57.98
2023-02-19T09:52:57.053Z,57.92
2023-02-19T09:55:02.986Z,57.92
2023-02-19T09:57:05.916Z,57.79
2023-02-19T09:59:20.179Z,57.95
2023-02-19T10:01:25.517Z,58.04
2023-02-19T10:03:47.750Z,58.01
2023-02-19T10:05:49.472Z,58.01
2023-02-19T10:07:53.427Z,58.10
2023-02-19T10:10:01.260Z,58.15
2023-02-19T10:12:02.961Z,58.13
2023-02-19T10:14:09.516Z,58.09
2023-02-19T10:16:19.625Z,58.04
2023-02-19T10:18:24.904Z,58.21
2023-02-19T10:20:29.203Z,58.40
2023-02-19T10:22:33.291Z,58.42
2023-02-19T10:24:36.415Z,58.65
2023-02-19T10:26:40.042Z,58.47
2023-02-19T10:28:41.694Z,58.50
2023-02-19T10:30:43.576Z,58.69
2023-02-19T10:33:04.587Z,58.62
2023-02-19T10:35:16.635Z,58.40
2023-02-19T10:37:19.036Z,58.46
2023-02-19T10:39:43.983Z,58.68
2023-02-19T10:41:45.623Z,58.22
2023-02-19T10:43:55.724Z,58.46
2023-02-19T10:45:59.910Z,58.44
2023-02-19T10:48:02.386Z,58.48
2023-02-19T10:50:18.315Z,58.50
2023-02-19T10:52:24.337Z,58.76
2023-02-19T10:54:30.597Z,58.70
2023-02-19T10:56:43.190Z,58.76
2023-02-19T10:58:46.935Z,58.92
2023-02-19T11:01:09.350Z,59.04
2023-02-19T11:03:18.345Z,58.80
2023-02-19T11:05:20.477Z,58.93
2023-02-19T11:07:24.914Z,58.72
2023-02-19T11:09:40.615Z,59.69
2023-02-19T11:11:42.598Z,59.43
2023-02-19T11:13:46.980Z,60.38
2023-02-19T11:15:52.981Z,61.30
2023-02-19T11:18:12.996Z,61.90
2023-02-19T11:20:17.632Z,61.14
2023-02-19T11:22:18.976Z,60.34
2023-02-19T11:24:28.805Z,60.10
2023-02-19T11:26:41.013Z,59.71
2023-02-19T11:28:43.484Z,59.37
2023-02-19T11:30:47.649Z,58.99
2023-02-19T11:32:50.750Z,58.90
2023-02-19T11:35:14.398Z,58.43
2023-02-19T11:37:24.933Z,58.00
2023-02-19T11:39:31.276Z,58.15
2023-02-19T11:41:41.842Z,57.86
2023-02-19T11:43:50.163Z,57.65
2023-02-19T11:46:09.746Z,57.67
2023-02-19T11:48:17.200Z,57.38
2023-02-19T11:50:27.956Z,57.08
2023-02-19T11:52:32.754Z,57.29
2023-02-19T11:54:54.630Z,57.08
2023-02-19T11:57:07.219Z,57.31
2023-02-19T11:59:33.528Z,56.74
2023-02-19T12:02:05.039Z,56.73
2023-02-19T12:04:25.004Z,56.69
2023-02-19T12:06:30.721Z,56.82
2023-02-19T12:09:09.160Z,56.33
2023-02-19T12:11:49.631Z,56.67
2023-02-19T12:14:01.660Z,56.57
2023-02-19T12:16:19.008Z,56.46
2023-02-19T12:18:45.446Z,56.27
2023-02-19T12:21:14.659Z,56.11
2023-02-19T12:23:37.256Z,56.52
2023-02-19T12:25:44.826Z,56.42
2023-02-19T12:28:04.272Z,56.31
2023-02-19T12:30:32.236Z,56.46
2023-02-19T12:33:12.515Z,56.35
2023-02-19T12:35:19.970Z,56.68
2023-02-19T12:37:42.646Z,56.80
2023-02-19T12:40:15.006Z,56.71
2023-02-19T12:42:52.446Z,56.99
2023-02-19T12:45:04.835Z,56.96
2023-02-19T12:47:08.701Z,56.96
2023-02-19T12:49:19.865Z,56.92
2023-02-19T12:51:40.182Z,57.01
2023-02-19T12:53:55.295Z,57.34
2023-02-19T12:56:00.292Z,57.31
2023-02-19T12:58:10.378Z,57.40
2023-02-19T13:00:27.424Z,57.37
2023-02-19T13:03:00.289Z,57.19
2023-02-19T13:05:11.108Z,57.37
2023-02-19T13:07:33.317Z,57.43
2023-02-19T13:09:46.928Z,57.25
2023-02-19T13:11:53.083Z,57.41
2023-02-19T13:14:16.834Z,57.58
2023-02-19T13:16:20.779Z,57.51
2023-02-19T13:18:56.128Z,57.69
2023-02-19T13:21:07.602Z,57.34
2023-02-19T13:23:59.164Z,57.63
2023-02-19T13:26:22.602Z,57.69
2023-02-19T13:28:50.316Z,57.82
2023-02-19T13:31:19.435Z,57.77
2023-02-19T13:33:37.684Z,57.94
2023-02-19T13:35:57.502Z,57.73
2023-02-19T13:40:32.242Z,57.07
2023-02-19T13:42:35.866Z,57.16
2023-02-19T13:44:41.345Z,57.07
2023-02-19T13:46:45.161Z,57.21
2023-02-19T13:48:50.027Z,56.86
2023-02-19T13:51:23.793Z,56.75
2023-02-19T13:53:54.077Z,56.76
2023-02-19T13:55:55.921Z,56.45
2023-02-19T13:58:33.668Z,56.49
2023-02-19T14:00:52.054Z,56.47
2023-02-19T14:03:29.986Z,56.17
2023-02-19T14:06:01.029Z,56.47
2023-02-19T14:08:08.613Z,56.74
2023-02-19T14:10:34.845Z,56.46
2023-02-19T14:12:41.273Z,56.47
2023-02-19T14:14:56.468Z,56.04
2023-02-19T14:17:09.397Z,56.54
2023-02-19T14:19:39.196Z,56.37
2023-02-19T14:21:52.731Z,56.00
2023-02-19T14:24:14.825Z,56.54
2023-02-19T14:26:30.524Z,56.53
2023-02-19T14:28:40.329Z,56.21
2023-02-19T14:30:57.062Z,56.21
2023-02-19T14:33:12.279Z,56.40
2023-02-19T14:35:32.669Z,56.07
2023-02-19T14:37:34.589Z,56.25
2023-02-19T14:39:40.339Z,56.21
2023-02-19T14:41:47.331Z,56.02
2023-02-19T14:43:51.828Z,56.06
2023-02-19T14:46:29.359Z,55.51
2023-02-19T14:48:39.599Z,55.98
2023-02-19T14:50:42.544Z,56.05
2023-02-19T14:52:48.759Z,55.90
2023-02-19T14:55:01.581Z,55.61
2023-02-19T14:57:05.065Z,56.09
2023-02-19T14:59:23.321Z,56.10
2023-02-19T15:01:30.371Z,56.34
2023-02-19T15:03:37.793Z,56.49
2023-02-19T15:05:46.439Z,56.34
2023-02-19T15:07:48.767Z,56.36
2023-02-19T15:09:53.426Z,56.13
2023-02-19T15:11:55.516Z,56.01
2023-02-19T15:13:59.538Z,55.80
2023-02-19T15:16:01.418Z,55.82
2023-02-19T15:18:05.156Z,56.01
2023-02-19T15:20:11.329Z,55.67
2023-02-19T15:22:20.873Z,55.55
2023-02-19T15:24:28.300Z,55.86
2023-02-19T15:26:43.029Z,55.92
2023-02-19T15:28:45.011Z,55.77
2023-02-19T15:30:47.291Z,55.63
2023-02-19T15:33:04.074Z,55.56
2023-02-19T15:35:05.987Z,55.85
2023-02-19T15:37:12.651Z,55.80
2023-02-19T15:39:27.154Z,55.62
2023-02-19T15:41:35.529Z,55.41
2023-02-19T15:43:40.221Z,55.53
2023-02-19T15:45:45.338Z,55.55
2023-02-19T15:47:53.184Z,55.20
2023-02-19T15:50:07.241Z,55.45
2023-02-19T15:52:20.188Z,55.22
2023-02-19T15:54:31.725Z,55.47
2023-02-19T15:56:46.496Z,55.15
2023-02-19T15:58:58.207Z,55.44
2023-02-19T16:01:08.414Z,54.93
2023-02-19T16:03:18.182Z,54.75
2023-02-19T16:05:26.053Z,54.97
2023-02-19T16:07:34.797Z,55.17
2023-02-19T16:09:41.363Z,55.30
2023-02-19T16:11:52.315Z,55.16
2023-02-19T16:14:22.750Z,55.11
2023-02-19T16:16:38.539Z,55.19
2023-02-19T16:18:45.438Z,55.42
2023-02-19T16:20:48.181Z,55.31
2023-02-19T16:22:56.590Z,55.28
2023-02-19T16:25:05.861Z,55.19
2023-02-19T16:27:08.394Z,55.50
2023-02-19T16:29:25.986Z,54.80
2023-02-19T16:31:29.795Z,55.30
2023-02-19T16:33:37.385Z,55.26
2023-02-19T16:35:40.132Z,55.08
2023-02-19T16:37:57.699Z,54.93
2023-02-19T16:40:08.133Z,55.05
2023-02-19T16:42:16.067Z,55.13
2023-02-19T16:44:20.376Z,55.25
2023-02-19T16:46:22.330Z,54.86
2023-02-19T16:48:24.389Z,55.03
2023-02-19T16:50:26.872Z,55.26
2023-02-19T16:52:28.912Z,55.29
2023-02-19T16:54:30.475Z,55.32
2023-02-19T16:56:32.319Z,55.22
2023-02-19T16:58:33.958Z,55.30
2023-02-19T17:00:35.847Z,55.18
2023-02-19T17:02:37.509Z,55.19
2023-02-19T17:04:39.257Z,55.11
2023-02-19T17:06:40.926Z,55.22
2023-02-19T17:08:44.305Z,55.23
2023-02-19T17:10:45.961Z,55.40
2023-02-19T17:12:50.640Z,55.17
2023-02-19T17:14:52.516Z,55.14
2023-02-19T17:16:55.346Z,55.25
2023-02-19T17:18:58.984Z,55.21
2023-02-19T17:21:16.228Z,54.94
2023-02-19T17:23:17.815Z,55.28
2023-02-19T17:25:20.021Z,54.88
2023-02-19T17:27:21.603Z,55.17
2023-02-19T17:29:24.465Z,55.31
2023-02-19T17:31:26.398Z,55.32
2023-02-19T17:33:28.024Z,55.12
2023-02-19T17:35:30.020Z,55.42
2023-02-19T17:37:31.733Z,55.29
2023-02-19T17:39:33.292Z,55.24
2023-02-19T17:41:35.163Z,55.29
2023-02-19T17:43:36.745Z,55.34
2023-02-19T17:45:41.191Z,55.47
2023-02-19T17:47:42.891Z,55.05
2023-02-19T17:49:49.785Z,55.42
2023-02-19T17:51:51.449Z,55.00
2023-02-19T17:53:53.042Z,55.18
2023-02-19T17:55:57.590Z,55.32
2023-02-19T17:57:59.849Z,55.36
2023-02-19T18:00:04.507Z,55.26
2023-02-19T18:02:14.301Z,55.24
2023-02-19T18:04:15.980Z,55.40
2023-02-19T18:06:17.941Z,55.32
2023-02-19T18:08:19.425Z,55.20
2023-02-19T18:10:23.478Z,55.33
2023-02-19T18:12:25.874Z,55.49
2023-02-19T18:14:27.420Z,55.29
2023-02-19T18:16:29.225Z,55.26
2023-02-19T18:18:33.369Z,55.12
2023-02-19T18:20:35.152Z,55.12
2023-02-19T18:22:40.599Z,55.05
2023-02-19T18:24:48.774Z,55.30
2023-02-19T18:26:50.430Z,55.21
2023-02-19T18:28:51.928Z,55.17
2023-02-19T18:30:53.650Z,55.39
2023-02-19T18:32:55.313Z,55.21
2023-02-19T18:34:58.225Z,55.18
2023-02-19T18:36:59.879Z,55.43
2023-02-19T18:39:01.740Z,55.37
2023-02-19T18:41:03.414Z,55.44
2023-02-19T18:43:08.717Z,55.30
2023-02-19T18:45:10.515Z,55.46
2023-02-19T18:47:12.389Z,55.37
2023-02-19T18:49:15.032Z,55.48
2023-02-19T18:51:16.616Z,55.46
2023-02-19T18:53:18.280Z,55.90
2023-02-19T18:55:19.964Z,55.81
2023-02-19T18:57:22.668Z,55.69
2023-02-19T18:59:24.624Z,55.81
2023-02-19T19:01:26.303Z,55.82
2023-02-19T19:03:30.558Z,55.71
2023-02-19T19:05:33.930Z,55.66
2023-02-19T19:07:35.559Z,55.87
2023-02-19T19:09:37.992Z,55.92
2023-02-19T19:11:40.608Z,55.79
2023-02-19T19:13:42.340Z,55.81
2023-02-19T19:15:50.365Z,55.78
2023-02-19T19:17:52.430Z,56.01
2023-02-19T19:19:56.372Z,56.18
2023-02-19T19:22:01.096Z,56.12
2023-02-19T19:24:03.304Z,56.18
2023-02-19T19:26:06.088Z,56.19
2023-02-19T19:28:08.042Z,56.01
2023-02-19T19:30:09.885Z,56.32
2023-02-19T19:32:15.990Z,56.25
2023-02-19T19:34:18.450Z,56.32
2023-02-19T19:36:22.592Z,56.42
2023-02-19T19:38:24.196Z,56.33
2023-02-19T19:40:25.722Z,56.50
2023-02-19T19:42:27.428Z,56.64
2023-02-19T19:44:29.256Z,56.50
2023-02-19T19:46:31.255Z,56.43
2023-02-19T19:48:33.215Z,56.50
2023-02-19T19:50:37.402Z,56.49
2023-02-19T19:52:39.253Z,56.56
2023-02-19T19:54:42.779Z,56.59
2023-02-19T19:56:47.197Z,56.46
2023-02-19T19:58:48.839Z,56.49
2023-02-19T20:00:51.770Z,56.45
2023-02-19T20:02:53.499Z,56.55
2023-02-19T20:04:55.055Z,56.38
2023-02-19T20:06:58.747Z,56.47
2023-02-19T20:09:03.301Z,56.58
2023-02-19T20:11:05.080Z,56.48
2023-02-19T20:13:07.182Z,56.45
2023-02-19T20:15:09.732Z,56.56
2023-02-19T20:17:11.542Z,56.46
2023-02-19T20:19:14.343Z,56.42
2023-02-19T20:21:16.073Z,56.45
2023-02-19T20:23:17.842Z,56.47
2023-02-19T20:25:24.375Z,56.48
2023-02-19T20:27:25.966Z,56.52
2023-02-19T20:29:30.660Z,56.57
2023-02-19T20:31:32.305Z,56.62
2023-02-19T20:33:33.980Z,56.67
2023-02-19T20:35:35.590Z,56.66
2023-02-19T20:37:40.425Z,56.53
2023-02-19T20:39:44.765Z,56.46
2023-02-19T20:41:47.918Z,56.35
2023-02-19T20:43:53.266Z,56.42
2023-02-19T20:45:57.933Z,56.50
2023-02-19T20:47:59.738Z,56.54
2023-02-19T20:50:01.331Z,56.55
2023-02-19T20:52:06.939Z,56.58
2023-02-19T20:54:11.463Z,56.51
2023-02-19T20:56:13.685Z,56.65
2023-02-19T20:58:15.474Z,56.58
2023-02-19T21:00:18.191Z,56.57
2023-02-19T21:02:23.859Z,56.58
2023-02-19T21:04:26.169Z,56.68
2023-02-19T21:06:27.713Z,56.80
2023-02-19T21:08:29.192Z,56.86
2023-02-19T21:10:31.332Z,56.67
2023-02-19T21:12:33.607Z,56.67
2023-02-19T21:14:37.475Z,56.84
2023-02-19T21:16:39.233Z,56.79
2023-02-19T21:18:43.788Z,56.98
2023-02-19T21:20:45.389Z,56.95
2023-02-19T21:22:47.086Z,56.81
2023-02-19T21:24:55.180Z,56.75
2023-02-19T21:26:57.272Z,56.79
2023-02-19T21:29:02.815Z,56.89
2023-02-19T21:31:05.023Z,56.75
2023-02-19T21:33:06.893Z,57.03
2023-02-19T21:35:11.260Z,56.86
2023-02-19T21:37:13.403Z,56.92
2023-02-19T21:39:20.822Z,56.86
2023-02-19T21:41:22.443Z,56.95
2023-02-19T21:43:24.106Z,56.91
2023-02-19T21:45:25.832Z,56.89
2023-02-19T21:47:30.234Z,56.84
2023-02-19T21:49:34.650Z,57.06
2023-02-19T21:51:39.275Z,57.04
2023-02-19T21:53:40.967Z,57.02
2023-02-19T21:55:57.532Z,57.05
2023-02-19T21:58:00.125Z,57.05
2023-02-19T22:00:03.768Z,56.49
2023-02-19T22:02:06.547Z,56.89
2023-02-19T22:04:14.298Z,57.08
2023-02-19T22:06:16.640Z,56.94
2023-02-19T22:08:21.356Z,56.96
2023-02-19T22:10:22.952Z,57.12
2023-02-19T22:12:24.484Z,57.08
2023-02-19T22:14:25.957Z,57.14
2023-02-19T22:16:28.797Z,57.06
2023-02-19T22:18:30.335Z,57.07
2023-02-19T22:20:32.087Z,57.21
2023-02-19T22:22:33.807Z,57.41
2023-02-19T22:24:35.767Z,57.28
2023-02-19T22:26:37.397Z,57.08
2023-02-19T22:28:38.902Z,57.23
2023-02-19T22:30:41.465Z,57.10
2023-02-19T22:32:43.262Z,57.19
2023-02-19T22:34:44.812Z,57.16
2023-02-19T22:36:46.657Z,57.38
2023-02-19T22:38:49.415Z,57.10
2023-02-19T22:40:51.129Z,57.22
2023-02-19T22:42:55.581Z,57.19
2023-02-19T22:44:57.230Z,57.40
2023-02-19T22:47:00.682Z,57.01
2023-02-19T22:49:05.615Z,56.95
2023-02-19T22:51:13.157Z,56.98
2023-02-19T22:53:16.589Z,56.98
2023-02-19T22:55:18.379Z,57.10
2023-02-19T22:57:22.706Z,57.63
2023-02-19T22:59:24.613Z,56.99
2023-02-19T23:01:26.619Z,56.98
2023-02-19T23:03:28.174Z,56.97
2023-02-19T23:05:33.043Z,57.01
2023-02-19T23:07:34.534Z,57.05
2023-02-19T23:09:36.199Z,56.94
2023-02-19T23:11:41.434Z,57.07
2023-02-19T23:13:46.362Z,57.08
2023-02-19T23:15:50.298Z,57.02
2023-02-19T23:17:54.704Z,56.97
2023-02-19T23:19:57.175Z,57.08
2023-02-19T23:22:03.684Z,57.13
2023-02-19T23:24:05.630Z,57.08
2023-02-19T23:26:07.324Z,57.05
2023-02-19T23:28:10.311Z,57.36
2023-02-19T23:30:13.016Z,57.04
2023-02-19T23:32:14.640Z,57.17
2023-02-19T23:34:17.335Z,57.10
2023-02-19T23:36:19.476Z,57.21
2023-02-19T23:38:21.141Z,57.12
2023-02-19T23:40:22.677Z,57.02
2023-02-19T23:42:24.340Z,57.06
2023-02-19T23:44:26.612Z,57.09
2023-02-19T23:46:29.910Z,57.18
2023-02-19T23:48:31.933Z,57.23
2023-02-19T23:50:34.618Z,57.10
2023-02-19T23:52:36.387Z,57.29
2023-02-19T23:54:40.807Z,57.18
2023-02-19T23:56:42.504Z,57.24
2023-02-19T23:58:44.182Z,57.18
